sensor_id;sensor_type;location;lat;lon;timestamp;temperature;humidity
15115;DHT22;7658;51.456;7.622;2023-09-19T00:01:08;16.10;99.90
15115;DHT22;7658;51.456;7.622;2023-09-19T00:03:35;16.10;99.90
15115;DHT22;7658;51.456;7.622;2023-09-19T00:06:04;16.00;99.90
15115;DHT22;7658;51.456;7.622;2023-09-19T00:08:33;16.00;99.90
15115;DHT22;7658;51.456;7.622;2023-09-19T00:10:58;16.00;99.90
15115;DHT22;7658;51.456;7.622;2023-09-19T00:13:29;15.90;99.90
15115;DHT22;7658;51.456;7.622;2023-09-19T00:15:56;15.90;99.90
15115;DHT22;7658;51.456;7.622;2023-09-19T00:18:24;15.80;99.90
15115;DHT22;7658;51.456;7.622;2023-09-19T00:20:57;15.80;99.90
15115;DHT22;7658;51.456;7.622;2023-09-19T00:23:23;15.80;99.90
15115;DHT22;7658;51.456;7.622;2023-09-19T00:25:50;15.80;99.90
15115;DHT22;7658;51.456;7.622;2023-09-19T00:28:17;15.80;99.90
15115;DHT22;7658;51.456;7.622;2023-09-19T00:30:44;15.80;99.90
15115;DHT22;7658;51.456;7.622;2023-09-19T00:33:10;15.70;99.90
15115;DHT22;7658;51.456;7.622;2023-09-19T00:35:49;15.70;99.90
15115;DHT22;7658;51.456;7.622;2023-09-19T00:38:15;15.70;99.90
15115;DHT22;7658;51.456;7.622;2023-09-19T00:40:46;15.60;99.90
15115;DHT22;7658;51.456;7.622;2023-09-19T00:43:12;15.60;99.90
15115;DHT22;7658;51.456;7.622;2023-09-19T00:45:38;15.60;99.90
15115;DHT22;7658;51.456;7.622;2023-09-19T00:48:04;15.60;99.90
15115;DHT22;7658;51.456;7.622;2023-09-19T00:50:41;15.50;99.90
15115;DHT22;7658;51.456;7.622;2023-09-19T00:53:08;15.50;99.90
15115;DHT22;7658;51.456;7.622;2023-09-19T00:55:39;15.40;99.90
15115;DHT22;7658;51.456;7.622;2023-09-19T00:58:06;15.40;99.90
15115;DHT22;7658;51.456;7.622;2023-09-19T01:00:34;15.40;99.90
15115;DHT22;7658;51.456;7.622;2023-09-19T01:03:03;15.30;99.90
15115;DHT22;7658;51.456;7.622;2023-09-19T01:05:30;15.30;99.90
15115;DHT22;7658;51.456;7.622;2023-09-19T01:07:56;15.30;99.90
15115;DHT22;7658;51.456;7.622;2023-09-19T01:10:22;15.30;99.90
15115;DHT22;7658;51.456;7.622;2023-09-19T01:18:30;15.20;99.90
15115;DHT22;7658;51.456;7.622;2023-09-19T01:21:26;15.20;99.90
15115;DHT22;7658;51.456;7.622;2023-09-19T01:24:03;15.20;99.90
15115;DHT22;7658;51.456;7.622;2023-09-19T01:29:37;15.10;99.90
15115;DHT22;7658;51.456;7.622;2023-09-19T01:32:06;15.10;99.90
15115;DHT22;7658;51.456;7.622;2023-09-19T01:34:51;15.20;99.90
15115;DHT22;7658;51.456;7.622;2023-09-19T01:37:20;15.10;99.90
15115;DHT22;7658;51.456;7.622;2023-09-19T01:39:53;15.10;99.90
15115;DHT22;7658;51.456;7.622;2023-09-19T01:47:27;14.90;99.90
15115;DHT22;7658;51.456;7.622;2023-09-19T01:50:15;14.90;99.90
15115;DHT22;7658;51.456;7.622;2023-09-19T01:53:05;14.80;99.90
15115;DHT22;7658;51.456;7.622;2023-09-19T01:55:39;14.80;99.90
15115;DHT22;7658;51.456;7.622;2023-09-19T02:00:58;14.80;99.90
15115;DHT22;7658;51.456;7.622;2023-09-19T02:03:26;14.80;99.90
15115;DHT22;7658;51.456;7.622;2023-09-19T02:05:53;14.80;99.90
15115;DHT22;7658;51.456;7.622;2023-09-19T02:08:20;14.80;99.90
15115;DHT22;7658;51.456;7.622;2023-09-19T02:10:49;14.80;99.90
15115;DHT22;7658;51.456;7.622;2023-09-19T02:13:19;14.70;99.90
15115;DHT22;7658;51.456;7.622;2023-09-19T02:15:47;14.70;99.90
15115;DHT22;7658;51.456;7.622;2023-09-19T02:18:13;14.70;99.90
15115;DHT22;7658;51.456;7.622;2023-09-19T02:20:42;14.70;99.90
15115;DHT22;7658;51.456;7.622;2023-09-19T02:23:08;14.70;99.90
15115;DHT22;7658;51.456;7.622;2023-09-19T02:25:35;14.70;99.90
15115;DHT22;7658;51.456;7.622;2023-09-19T02:28:01;14.70;99.90
15115;DHT22;7658;51.456;7.622;2023-09-19T02:30:29;14.70;99.90
15115;DHT22;7658;51.456;7.622;2023-09-19T02:32:55;14.70;99.90
15115;DHT22;7658;51.456;7.622;2023-09-19T02:35:21;14.70;99.90
15115;DHT22;7658;51.456;7.622;2023-09-19T02:37:48;14.70;99.90
15115;DHT22;7658;51.456;7.622;2023-09-19T02:40:14;14.70;99.90
15115;DHT22;7658;51.456;7.622;2023-09-19T02:42:54;14.60;99.90
15115;DHT22;7658;51.456;7.622;2023-09-19T02:45:20;14.60;99.90
15115;DHT22;7658;51.456;7.622;2023-09-19T02:47:47;14.60;99.90
15115;DHT22;7658;51.456;7.622;2023-09-19T02:50:14;14.60;99.90
15115;DHT22;7658;51.456;7.622;2023-09-19T02:52:42;14.60;99.90
15115;DHT22;7658;51.456;7.622;2023-09-19T02:55:12;14.60;99.90
15115;DHT22;7658;51.456;7.622;2023-09-19T02:57:40;14.60;99.90
15115;DHT22;7658;51.456;7.622;2023-09-19T03:00:09;14.60;99.90
15115;DHT22;7658;51.456;7.622;2023-09-19T03:02:37;14.60;99.90
15115;DHT22;7658;51.456;7.622;2023-09-19T03:05:06;14.60;99.90
15115;DHT22;7658;51.456;7.622;2023-09-19T03:07:32;14.60;99.90
15115;DHT22;7658;51.456;7.622;2023-09-19T03:10:10;14.60;99.90
15115;DHT22;7658;51.456;7.622;2023-09-19T03:12:35;14.70;99.90
15115;DHT22;7658;51.456;7.622;2023-09-19T03:15:02;14.60;99.90
15115;DHT22;7658;51.456;7.622;2023-09-19T03:17:29;14.70;99.90
15115;DHT22;7658;51.456;7.622;2023-09-19T03:19:55;14.60;99.90
15115;DHT22;7658;51.456;7.622;2023-09-19T03:22:22;14.60;99.90
15115;DHT22;7658;51.456;7.622;2023-09-19T03:24:50;14.60;99.90
15115;DHT22;7658;51.456;7.622;2023-09-19T03:27:16;14.60;99.90
15115;DHT22;7658;51.456;7.622;2023-09-19T03:29:42;14.60;99.90
15115;DHT22;7658;51.456;7.622;2023-09-19T03:32:08;14.60;99.90
15115;DHT22;7658;51.456;7.622;2023-09-19T03:34:37;14.60;99.90
15115;DHT22;7658;51.456;7.622;2023-09-19T03:37:08;14.60;99.90
15115;DHT22;7658;51.456;7.622;2023-09-19T03:39:34;14.60;99.90
15115;DHT22;7658;51.456;7.622;2023-09-19T03:42:01;14.60;99.90
15115;DHT22;7658;51.456;7.622;2023-09-19T03:44:26;14.50;99.90
15115;DHT22;7658;51.456;7.622;2023-09-19T03:46:52;14.50;99.90
15115;DHT22;7658;51.456;7.622;2023-09-19T03:49:18;14.50;99.90
15115;DHT22;7658;51.456;7.622;2023-09-19T03:51:44;14.50;99.90
15115;DHT22;7658;51.456;7.622;2023-09-19T03:54:10;14.40;99.90
15115;DHT22;7658;51.456;7.622;2023-09-19T03:56:35;14.40;99.90
15115;DHT22;7658;51.456;7.622;2023-09-19T03:59:01;14.40;99.90
15115;DHT22;7658;51.456;7.622;2023-09-19T04:01:28;14.30;99.90
15115;DHT22;7658;51.456;7.622;2023-09-19T04:03:56;14.30;99.90
15115;DHT22;7658;51.456;7.622;2023-09-19T04:06:23;14.30;99.90
15115;DHT22;7658;51.456;7.622;2023-09-19T04:08:49;14.30;99.90
15115;DHT22;7658;51.456;7.622;2023-09-19T04:11:15;14.20;99.90
15115;DHT22;7658;51.456;7.622;2023-09-19T04:13:40;14.20;99.90
15115;DHT22;7658;51.456;7.622;2023-09-19T04:16:06;14.20;99.90
15115;DHT22;7658;51.456;7.622;2023-09-19T04:18:32;14.10;99.90
15115;DHT22;7658;51.456;7.622;2023-09-19T04:21:02;14.10;99.90
15115;DHT22;7658;51.456;7.622;2023-09-19T04:23:30;14.10;99.90
15115;DHT22;7658;51.456;7.622;2023-09-19T04:25:56;14.10;99.90
15115;DHT22;7658;51.456;7.622;2023-09-19T04:28:23;14.10;99.90
15115;DHT22;7658;51.456;7.622;2023-09-19T04:30:50;14.10;99.90
15115;DHT22;7658;51.456;7.622;2023-09-19T04:33:15;14.00;99.90
15115;DHT22;7658;51.456;7.622;2023-09-19T04:35:41;14.00;99.90
15115;DHT22;7658;51.456;7.622;2023-09-19T04:38:10;13.90;99.90
15115;DHT22;7658;51.456;7.622;2023-09-19T04:40:37;13.90;99.90
15115;DHT22;7658;51.456;7.622;2023-09-19T04:43:05;13.90;99.90
15115;DHT22;7658;51.456;7.622;2023-09-19T04:45:31;13.90;99.90
15115;DHT22;7658;51.456;7.622;2023-09-19T04:47:57;13.90;99.90
15115;DHT22;7658;51.456;7.622;2023-09-19T04:50:23;13.90;99.90
15115;DHT22;7658;51.456;7.622;2023-09-19T04:52:50;14.00;99.90
15115;DHT22;7658;51.456;7.622;2023-09-19T04:55:17;13.90;99.90
15115;DHT22;7658;51.456;7.622;2023-09-19T04:57:48;13.90;99.90
15115;DHT22;7658;51.456;7.622;2023-09-19T05:00:19;13.90;99.90
15115;DHT22;7658;51.456;7.622;2023-09-19T05:02:53;13.90;99.90
15115;DHT22;7658;51.456;7.622;2023-09-19T05:05:20;13.90;99.90
15115;DHT22;7658;51.456;7.622;2023-09-19T05:07:48;13.90;99.90
15115;DHT22;7658;51.456;7.622;2023-09-19T05:10:14;13.90;99.90
15115;DHT22;7658;51.456;7.622;2023-09-19T05:12:41;13.90;99.90
15115;DHT22;7658;51.456;7.622;2023-09-19T05:15:07;13.90;99.90
15115;DHT22;7658;51.456;7.622;2023-09-19T05:17:34;13.80;99.90
15115;DHT22;7658;51.456;7.622;2023-09-19T05:20:03;13.80;99.90
15115;DHT22;7658;51.456;7.622;2023-09-19T05:22:49;13.80;99.90
15115;DHT22;7658;51.456;7.622;2023-09-19T05:25:16;13.90;99.90
15115;DHT22;7658;51.456;7.622;2023-09-19T05:27:44;13.80;99.90
15115;DHT22;7658;51.456;7.622;2023-09-19T05:30:10;13.80;99.90
15115;DHT22;7658;51.456;7.622;2023-09-19T05:32:36;13.80;99.90
15115;DHT22;7658;51.456;7.622;2023-09-19T05:35:02;13.80;99.90
15115;DHT22;7658;51.456;7.622;2023-09-19T05:37:28;13.80;99.90
15115;DHT22;7658;51.456;7.622;2023-09-19T05:39:55;13.90;99.90
15115;DHT22;7658;51.456;7.622;2023-09-19T05:42:20;13.90;99.90
15115;DHT22;7658;51.456;7.622;2023-09-19T05:44:46;13.90;99.90
15115;DHT22;7658;51.456;7.622;2023-09-19T05:47:12;13.80;99.90
15115;DHT22;7658;51.456;7.622;2023-09-19T05:49:38;13.80;99.90
15115;DHT22;7658;51.456;7.622;2023-09-19T05:52:05;13.80;99.90
15115;DHT22;7658;51.456;7.622;2023-09-19T05:54:32;13.80;99.90
15115;DHT22;7658;51.456;7.622;2023-09-19T05:57:00;13.90;99.90
15115;DHT22;7658;51.456;7.622;2023-09-19T05:59:27;13.90;99.90
15115;DHT22;7658;51.456;7.622;2023-09-19T06:01:53;14.00;99.90
15115;DHT22;7658;51.456;7.622;2023-09-19T06:04:18;14.00;99.90
15115;DHT22;7658;51.456;7.622;2023-09-19T06:06:45;14.00;99.90
15115;DHT22;7658;51.456;7.622;2023-09-19T06:09:14;14.10;99.90
15115;DHT22;7658;51.456;7.622;2023-09-19T06:11:42;14.10;99.90
15115;DHT22;7658;51.456;7.622;2023-09-19T06:14:07;14.10;99.90
15115;DHT22;7658;51.456;7.622;2023-09-19T06:16:36;14.10;99.90
15115;DHT22;7658;51.456;7.622;2023-09-19T06:19:03;14.10;99.90
15115;DHT22;7658;51.456;7.622;2023-09-19T06:21:32;14.20;99.90
15115;DHT22;7658;51.456;7.622;2023-09-19T06:23:58;14.20;99.90
15115;DHT22;7658;51.456;7.622;2023-09-19T06:26:24;14.20;99.90
15115;DHT22;7658;51.456;7.622;2023-09-19T06:28:52;14.20;99.90
15115;DHT22;7658;51.456;7.622;2023-09-19T06:31:18;14.20;99.90
15115;DHT22;7658;51.456;7.622;2023-09-19T06:33:44;14.20;99.90
15115;DHT22;7658;51.456;7.622;2023-09-19T06:36:09;14.30;99.90
15115;DHT22;7658;51.456;7.622;2023-09-19T06:38:36;14.40;99.90
15115;DHT22;7658;51.456;7.622;2023-09-19T06:41:04;14.40;99.90
15115;DHT22;7658;51.456;7.622;2023-09-19T06:43:31;14.40;99.90
15115;DHT22;7658;51.456;7.622;2023-09-19T06:45:58;14.40;99.90
15115;DHT22;7658;51.456;7.622;2023-09-19T06:48:25;14.40;99.90
15115;DHT22;7658;51.456;7.622;2023-09-19T06:50:52;14.40;99.90
15115;DHT22;7658;51.456;7.622;2023-09-19T06:53:18;14.40;99.90
15115;DHT22;7658;51.456;7.622;2023-09-19T06:55:45;14.50;99.90
15115;DHT22;7658;51.456;7.622;2023-09-19T06:58:10;14.60;99.90
15115;DHT22;7658;51.456;7.622;2023-09-19T07:00:36;14.50;99.90
15115;DHT22;7658;51.456;7.622;2023-09-19T07:03:05;14.60;99.90
15115;DHT22;7658;51.456;7.622;2023-09-19T07:05:34;14.60;99.90
15115;DHT22;7658;51.456;7.622;2023-09-19T07:08:07;14.60;99.90
15115;DHT22;7658;51.456;7.622;2023-09-19T07:10:33;14.60;99.90
15115;DHT22;7658;51.456;7.622;2023-09-19T07:13:01;14.70;99.90
15115;DHT22;7658;51.456;7.622;2023-09-19T07:15:28;14.70;99.90
15115;DHT22;7658;51.456;7.622;2023-09-19T07:17:56;14.70;99.90
15115;DHT22;7658;51.456;7.622;2023-09-19T07:20:23;14.80;99.90
15115;DHT22;7658;51.456;7.622;2023-09-19T07:22:54;14.80;99.90
15115;DHT22;7658;51.456;7.622;2023-09-19T07:25:26;14.80;99.90
15115;DHT22;7658;51.456;7.622;2023-09-19T07:27:51;14.90;99.90
15115;DHT22;7658;51.456;7.622;2023-09-19T07:30:17;14.90;99.90
15115;DHT22;7658;51.456;7.622;2023-09-19T07:32:43;14.90;99.90
15115;DHT22;7658;51.456;7.622;2023-09-19T07:35:09;14.90;99.90
15115;DHT22;7658;51.456;7.622;2023-09-19T07:37:35;15.00;99.90
15115;DHT22;7658;51.456;7.622;2023-09-19T07:40:02;15.10;99.90
15115;DHT22;7658;51.456;7.622;2023-09-19T07:42:37;15.10;99.90
15115;DHT22;7658;51.456;7.622;2023-09-19T07:45:06;15.10;99.90
15115;DHT22;7658;51.456;7.622;2023-09-19T07:47:33;15.10;99.90
15115;DHT22;7658;51.456;7.622;2023-09-19T07:50:00;15.20;99.90
15115;DHT22;7658;51.456;7.622;2023-09-19T07:52:28;15.20;99.90
15115;DHT22;7658;51.456;7.622;2023-09-19T07:54:54;15.20;99.90
15115;DHT22;7658;51.456;7.622;2023-09-19T07:57:22;15.30;99.90
15115;DHT22;7658;51.456;7.622;2023-09-19T07:59:48;15.30;99.90
15115;DHT22;7658;51.456;7.622;2023-09-19T08:02:14;15.40;99.90
15115;DHT22;7658;51.456;7.622;2023-09-19T08:04:45;15.40;99.90
15115;DHT22;7658;51.456;7.622;2023-09-19T08:07:14;15.40;99.90
15115;DHT22;7658;51.456;7.622;2023-09-19T08:09:40;15.40;99.90
15115;DHT22;7658;51.456;7.622;2023-09-19T08:12:07;15.50;99.90
15115;DHT22;7658;51.456;7.622;2023-09-19T08:14:36;15.60;99.90
15115;DHT22;7658;51.456;7.622;2023-09-19T08:17:03;15.70;99.90
15115;DHT22;7658;51.456;7.622;2023-09-19T08:19:31;15.70;99.90
15115;DHT22;7658;51.456;7.622;2023-09-19T08:22:00;15.80;99.90
15115;DHT22;7658;51.456;7.622;2023-09-19T08:24:28;15.80;99.90
15115;DHT22;7658;51.456;7.622;2023-09-19T08:26:57;15.80;99.90
15115;DHT22;7658;51.456;7.622;2023-09-19T08:29:25;15.80;99.90
15115;DHT22;7658;51.456;7.622;2023-09-19T08:31:54;15.90;99.90
15115;DHT22;7658;51.456;7.622;2023-09-19T08:34:22;16.00;99.90
15115;DHT22;7658;51.456;7.622;2023-09-19T08:36:52;16.00;99.90
15115;DHT22;7658;51.456;7.622;2023-09-19T08:39:24;16.00;99.90
15115;DHT22;7658;51.456;7.622;2023-09-19T08:42:00;16.00;99.90
15115;DHT22;7658;51.456;7.622;2023-09-19T08:44:27;16.10;99.90
15115;DHT22;7658;51.456;7.622;2023-09-19T08:47:19;16.00;99.90
15115;DHT22;7658;51.456;7.622;2023-09-19T08:50:04;16.00;99.90
15115;DHT22;7658;51.456;7.622;2023-09-19T08:52:42;16.00;99.90
15115;DHT22;7658;51.456;7.622;2023-09-19T08:55:12;16.10;99.90
15115;DHT22;7658;51.456;7.622;2023-09-19T08:57:39;16.20;99.90
15115;DHT22;7658;51.456;7.622;2023-09-19T09:00:08;16.30;99.90
15115;DHT22;7658;51.456;7.622;2023-09-19T09:02:40;16.30;99.90
15115;DHT22;7658;51.456;7.622;2023-09-19T09:05:09;16.40;99.90
15115;DHT22;7658;51.456;7.622;2023-09-19T09:07:37;16.40;99.90
15115;DHT22;7658;51.456;7.622;2023-09-19T09:10:04;16.40;99.90
15115;DHT22;7658;51.456;7.622;2023-09-19T09:12:30;16.40;99.90
15115;DHT22;7658;51.456;7.622;2023-09-19T09:14:56;16.50;99.90
15115;DHT22;7658;51.456;7.622;2023-09-19T09:17:26;16.50;99.90
15115;DHT22;7658;51.456;7.622;2023-09-19T09:19:55;16.60;99.90
15115;DHT22;7658;51.456;7.622;2023-09-19T09:22:21;16.70;99.90
15115;DHT22;7658;51.456;7.622;2023-09-19T09:24:54;16.60;99.90
15115;DHT22;7658;51.456;7.622;2023-09-19T09:27:22;16.50;99.90
15115;DHT22;7658;51.456;7.622;2023-09-19T09:29:50;16.50;99.90
15115;DHT22;7658;51.456;7.622;2023-09-19T09:32:19;16.60;99.90
15115;DHT22;7658;51.456;7.622;2023-09-19T09:34:54;16.70;99.90
15115;DHT22;7658;51.456;7.622;2023-09-19T09:37:21;16.80;99.90
15115;DHT22;7658;51.456;7.622;2023-09-19T09:40:01;16.80;99.90
15115;DHT22;7658;51.456;7.622;2023-09-19T09:42:42;16.80;99.90
15115;DHT22;7658;51.456;7.622;2023-09-19T09:45:23;16.80;99.90
15115;DHT22;7658;51.456;7.622;2023-09-19T09:47:59;16.80;99.90
15115;DHT22;7658;51.456;7.622;2023-09-19T09:50:35;16.90;99.90
15115;DHT22;7658;51.456;7.622;2023-09-19T09:53:21;16.90;99.90
15115;DHT22;7658;51.456;7.622;2023-09-19T09:56:08;16.90;99.90
15115;DHT22;7658;51.456;7.622;2023-09-19T10:01:14;16.80;99.90
15115;DHT22;7658;51.456;7.622;2023-09-19T10:03:42;16.80;99.90
15115;DHT22;7658;51.456;7.622;2023-09-19T10:06:14;16.80;99.90
15115;DHT22;7658;51.456;7.622;2023-09-19T10:09:06;16.80;99.90
15115;DHT22;7658;51.456;7.622;2023-09-19T10:11:42;16.90;99.90
15115;DHT22;7658;51.456;7.622;2023-09-19T10:14:17;17.10;99.90
15115;DHT22;7658;51.456;7.622;2023-09-19T10:16:49;17.20;99.90
15115;DHT22;7658;51.456;7.622;2023-09-19T10:19:55;17.20;99.90
15115;DHT22;7658;51.456;7.622;2023-09-19T10:22:24;17.30;99.90
15115;DHT22;7658;51.456;7.622;2023-09-19T10:24:53;17.30;99.90
15115;DHT22;7658;51.456;7.622;2023-09-19T10:27:24;17.20;99.90
15115;DHT22;7658;51.456;7.622;2023-09-19T10:29:52;17.30;99.90
15115;DHT22;7658;51.456;7.622;2023-09-19T10:32:23;17.20;99.90
15115;DHT22;7658;51.456;7.622;2023-09-19T10:34:49;17.30;99.90
15115;DHT22;7658;51.456;7.622;2023-09-19T10:37:21;17.30;99.90
15115;DHT22;7658;51.456;7.622;2023-09-19T10:39:48;17.30;99.90
15115;DHT22;7658;51.456;7.622;2023-09-19T10:42:19;17.40;99.90
15115;DHT22;7658;51.456;7.622;2023-09-19T10:44:50;17.50;99.90
15115;DHT22;7658;51.456;7.622;2023-09-19T10:47:19;17.80;99.90
15115;DHT22;7658;51.456;7.622;2023-09-19T10:49:46;18.00;99.90
15115;DHT22;7658;51.456;7.622;2023-09-19T10:52:18;18.10;99.90
15115;DHT22;7658;51.456;7.622;2023-09-19T10:54:48;18.10;99.90
15115;DHT22;7658;51.456;7.622;2023-09-19T10:57:23;18.20;99.90
15115;DHT22;7658;51.456;7.622;2023-09-19T11:00:08;18.30;99.90
15115;DHT22;7658;51.456;7.622;2023-09-19T11:05:41;18.40;99.90
15115;DHT22;7658;51.456;7.622;2023-09-19T11:08:08;18.50;99.90
15115;DHT22;7658;51.456;7.622;2023-09-19T11:10:48;18.70;99.90
15115;DHT22;7658;51.456;7.622;2023-09-19T11:13:28;18.90;99.90
15115;DHT22;7658;51.456;7.622;2023-09-19T11:18:51;19.00;99.90
15115;DHT22;7658;51.456;7.622;2023-09-19T11:27:12;19.30;99.90
15115;DHT22;7658;51.456;7.622;2023-09-19T11:29:43;19.40;99.90
15115;DHT22;7658;51.456;7.622;2023-09-19T11:32:09;19.10;99.90
15115;DHT22;7658;51.456;7.622;2023-09-19T11:34:43;19.10;99.90
15115;DHT22;7658;51.456;7.622;2023-09-19T11:39:39;19.20;99.90
15115;DHT22;7658;51.456;7.622;2023-09-19T11:42:43;19.00;99.90
15115;DHT22;7658;51.456;7.622;2023-09-19T11:48:16;19.40;99.90
15115;DHT22;7658;51.456;7.622;2023-09-19T11:50:45;19.50;99.90
15115;DHT22;7658;51.456;7.622;2023-09-19T11:53:13;19.90;99.90
15115;DHT22;7658;51.456;7.622;2023-09-19T11:55:40;20.30;99.90
15115;DHT22;7658;51.456;7.622;2023-09-19T11:58:09;20.30;99.90
15115;DHT22;7658;51.456;7.622;2023-09-19T12:00:38;20.20;99.90
15115;DHT22;7658;51.456;7.622;2023-09-19T12:03:09;20.10;99.90
15115;DHT22;7658;51.456;7.622;2023-09-19T12:05:36;20.20;99.90
15115;DHT22;7658;51.456;7.622;2023-09-19T12:08:05;20.30;99.90
15115;DHT22;7658;51.456;7.622;2023-09-19T12:10:48;20.20;99.90
15115;DHT22;7658;51.456;7.622;2023-09-19T12:13:18;20.00;99.90
15115;DHT22;7658;51.456;7.622;2023-09-19T12:15:45;19.90;99.90
15115;DHT22;7658;51.456;7.622;2023-09-19T12:18:31;20.00;99.90
15115;DHT22;7658;51.456;7.622;2023-09-19T12:20:57;20.30;99.90
15115;DHT22;7658;51.456;7.622;2023-09-19T12:23:24;20.60;99.90
15115;DHT22;7658;51.456;7.622;2023-09-19T12:25:51;20.80;99.90
15115;DHT22;7658;51.456;7.622;2023-09-19T12:28:20;20.60;99.90
15115;DHT22;7658;51.456;7.622;2023-09-19T12:30:48;20.60;99.90
15115;DHT22;7658;51.456;7.622;2023-09-19T12:33:19;20.70;99.90
15115;DHT22;7658;51.456;7.622;2023-09-19T12:35:45;20.70;99.90
15115;DHT22;7658;51.456;7.622;2023-09-19T12:38:23;20.70;99.90
15115;DHT22;7658;51.456;7.622;2023-09-19T12:40:50;20.70;99.90
15115;DHT22;7658;51.456;7.622;2023-09-19T12:43:17;20.70;99.90
15115;DHT22;7658;51.456;7.622;2023-09-19T12:45:43;20.60;99.90
15115;DHT22;7658;51.456;7.622;2023-09-19T12:48:25;20.60;99.90
15115;DHT22;7658;51.456;7.622;2023-09-19T12:51:07;20.70;99.90
15115;DHT22;7658;51.456;7.622;2023-09-19T12:53:36;20.80;99.90
15115;DHT22;7658;51.456;7.622;2023-09-19T12:56:06;21.00;99.90
15115;DHT22;7658;51.456;7.622;2023-09-19T12:58:35;21.10;99.90
15115;DHT22;7658;51.456;7.622;2023-09-19T13:01:16;20.90;99.90
15115;DHT22;7658;51.456;7.622;2023-09-19T13:03:42;20.60;99.90
15115;DHT22;7658;51.456;7.622;2023-09-19T13:06:08;20.50;99.90
15115;DHT22;7658;51.456;7.622;2023-09-19T13:08:36;20.80;99.90
15115;DHT22;7658;51.456;7.622;2023-09-19T13:11:14;20.90;99.90
15115;DHT22;7658;51.456;7.622;2023-09-19T13:13:48;21.00;99.90
15115;DHT22;7658;51.456;7.622;2023-09-19T13:16:18;21.10;99.90
15115;DHT22;7658;51.456;7.622;2023-09-19T13:18:53;21.30;99.90
15115;DHT22;7658;51.456;7.622;2023-09-19T13:21:39;21.20;99.90
15115;DHT22;7658;51.456;7.622;2023-09-19T13:24:23;21.10;99.90
15115;DHT22;7658;51.456;7.622;2023-09-19T13:26:51;20.70;99.90
15115;DHT22;7658;51.456;7.622;2023-09-19T13:29:17;20.90;99.90
15115;DHT22;7658;51.456;7.622;2023-09-19T13:31:50;21.10;99.90
15115;DHT22;7658;51.456;7.622;2023-09-19T13:34:19;21.30;99.90
15115;DHT22;7658;51.456;7.622;2023-09-19T13:36:46;21.60;99.90
15115;DHT22;7658;51.456;7.622;2023-09-19T13:39:16;21.60;99.90
15115;DHT22;7658;51.456;7.622;2023-09-19T13:41:44;21.60;99.90
15115;DHT22;7658;51.456;7.622;2023-09-19T13:44:10;21.30;99.90
15115;DHT22;7658;51.456;7.622;2023-09-19T13:46:36;21.30;99.90
15115;DHT22;7658;51.456;7.622;2023-09-19T13:49:02;21.30;99.90
15115;DHT22;7658;51.456;7.622;2023-09-19T13:51:31;21.20;99.90
15115;DHT22;7658;51.456;7.622;2023-09-19T13:53:57;21.20;99.90
15115;DHT22;7658;51.456;7.622;2023-09-19T13:56:25;21.50;99.90
15115;DHT22;7658;51.456;7.622;2023-09-19T13:58:53;21.50;99.90
15115;DHT22;7658;51.456;7.622;2023-09-19T14:01:20;21.30;99.90
15115;DHT22;7658;51.456;7.622;2023-09-19T14:03:45;21.40;99.90
15115;DHT22;7658;51.456;7.622;2023-09-19T14:06:17;21.40;99.90
15115;DHT22;7658;51.456;7.622;2023-09-19T14:08:44;21.50;99.90
15115;DHT22;7658;51.456;7.622;2023-09-19T14:11:13;21.50;99.90
15115;DHT22;7658;51.456;7.622;2023-09-19T14:13:40;21.40;99.90
15115;DHT22;7658;51.456;7.622;2023-09-19T14:16:07;21.20;99.90
15115;DHT22;7658;51.456;7.622;2023-09-19T14:18:34;21.20;99.90
15115;DHT22;7658;51.456;7.622;2023-09-19T14:21:06;21.20;99.90
15115;DHT22;7658;51.456;7.622;2023-09-19T14:23:38;21.10;99.90
15115;DHT22;7658;51.456;7.622;2023-09-19T14:26:16;20.90;99.90
15115;DHT22;7658;51.456;7.622;2023-09-19T14:29:07;20.80;99.90
15115;DHT22;7658;51.456;7.622;2023-09-19T14:31:39;20.60;99.90
15115;DHT22;7658;51.456;7.622;2023-09-19T14:34:05;20.40;99.90
15115;DHT22;7658;51.456;7.622;2023-09-19T14:36:31;20.20;99.90
15115;DHT22;7658;51.456;7.622;2023-09-19T14:38:58;20.00;99.90
15115;DHT22;7658;51.456;7.622;2023-09-19T14:41:24;19.90;99.90
15115;DHT22;7658;51.456;7.622;2023-09-19T14:43:51;19.90;99.90
15115;DHT22;7658;51.456;7.622;2023-09-19T14:46:17;19.90;99.90
15115;DHT22;7658;51.456;7.622;2023-09-19T14:48:44;19.80;99.90
15115;DHT22;7658;51.456;7.622;2023-09-19T14:51:13;19.70;99.90
15115;DHT22;7658;51.456;7.622;2023-09-19T14:53:40;19.70;99.90
15115;DHT22;7658;51.456;7.622;2023-09-19T14:56:10;19.80;99.90
15115;DHT22;7658;51.456;7.622;2023-09-19T14:58:37;19.80;99.90
15115;DHT22;7658;51.456;7.622;2023-09-19T15:01:09;19.70;99.90
15115;DHT22;7658;51.456;7.622;2023-09-19T15:03:39;19.60;99.90
15115;DHT22;7658;51.456;7.622;2023-09-19T15:06:07;19.50;99.90
15115;DHT22;7658;51.456;7.622;2023-09-19T15:08:36;19.50;99.90
15115;DHT22;7658;51.456;7.622;2023-09-19T15:11:07;19.50;99.90
15115;DHT22;7658;51.456;7.622;2023-09-19T15:13:34;19.40;99.90
15115;DHT22;7658;51.456;7.622;2023-09-19T15:16:04;19.40;99.90
15115;DHT22;7658;51.456;7.622;2023-09-19T15:18:30;19.40;99.90
15115;DHT22;7658;51.456;7.622;2023-09-19T15:20:57;19.40;99.90
15115;DHT22;7658;51.456;7.622;2023-09-19T15:23:25;19.30;99.90
15115;DHT22;7658;51.456;7.622;2023-09-19T15:25:51;19.30;99.90
15115;DHT22;7658;51.456;7.622;2023-09-19T15:28:19;19.30;99.90
15115;DHT22;7658;51.456;7.622;2023-09-19T15:30:57;19.30;99.90
15115;DHT22;7658;51.456;7.622;2023-09-19T15:33:22;19.30;99.90
15115;DHT22;7658;51.456;7.622;2023-09-19T15:35:48;19.20;99.90
15115;DHT22;7658;51.456;7.622;2023-09-19T15:38:14;19.20;99.90
15115;DHT22;7658;51.456;7.622;2023-09-19T15:40:56;19.10;99.90
15115;DHT22;7658;51.456;7.622;2023-09-19T15:43:21;19.20;99.90
15115;DHT22;7658;51.456;7.622;2023-09-19T15:45:49;19.20;99.90
15115;DHT22;7658;51.456;7.622;2023-09-19T15:48:15;19.10;99.90
15115;DHT22;7658;51.456;7.622;2023-09-19T15:50:42;19.10;99.90
15115;DHT22;7658;51.456;7.622;2023-09-19T15:53:10;19.10;99.90
15115;DHT22;7658;51.456;7.622;2023-09-19T15:55:41;19.00;99.90
15115;DHT22;7658;51.456;7.622;2023-09-19T15:58:07;19.10;99.90
15115;DHT22;7658;51.456;7.622;2023-09-19T16:00:50;19.00;99.90
15115;DHT22;7658;51.456;7.622;2023-09-19T16:03:16;19.00;99.90
15115;DHT22;7658;51.456;7.622;2023-09-19T16:05:43;19.00;99.90
15115;DHT22;7658;51.456;7.622;2023-09-19T16:08:08;19.00;99.90
15115;DHT22;7658;51.456;7.622;2023-09-19T16:10:35;19.00;99.90
15115;DHT22;7658;51.456;7.622;2023-09-19T16:13:02;18.90;99.90
15115;DHT22;7658;51.456;7.622;2023-09-19T16:15:29;18.90;99.90
15115;DHT22;7658;51.456;7.622;2023-09-19T16:17:55;18.90;99.90
15115;DHT22;7658;51.456;7.622;2023-09-19T16:20:20;18.90;99.90
15115;DHT22;7658;51.456;7.622;2023-09-19T16:22:48;18.90;99.90
15115;DHT22;7658;51.456;7.622;2023-09-19T16:25:14;18.90;99.90
15115;DHT22;7658;51.456;7.622;2023-09-19T16:27:40;18.80;99.90
15115;DHT22;7658;51.456;7.622;2023-09-19T16:30:07;18.80;99.90
15115;DHT22;7658;51.456;7.622;2023-09-19T16:32:35;18.80;99.90
15115;DHT22;7658;51.456;7.622;2023-09-19T16:35:02;18.80;99.90